Time;durP1;ratioP1;P1;durP2;ratioP2;P2;SDS_P1;SDS_P2;PMS_P1;PMS_P2;Temp;Humidity;BMP_temperature;BMP_pressure;BME280_temperature;BME280_humidity;BME280_pressure;Samples;Min_cycle;Max_cycle;Signal;HPM_P1;HPM_P2
2022/12/19 00:01:52;;;;;;;0.28;0.28;;;-2.60;99.90;;;-2.93;100.00;101372.69;4901818;29;20299;-81
2022/12/19 00:04:20;;;;;;;0.30;0.30;;;-2.60;99.90;;;-2.92;100.00;101374.47;4892156;29;20256;-81
2022/12/19 00:06:47;;;;;;;0.70;0.50;;;-1.70;99.90;;;-2.90;100.00;101371.22;4902941;29;20258;-81
2022/12/19 00:09:14;;;;;;;0.20;0.20;;;-2.60;99.90;;;-2.90;100.00;101365.16;4894038;29;20256;-81
2022/12/19 00:11:41;;;;;;;0.20;0.20;;;-2.60;99.90;;;-2.91;100.00;101360.75;4899826;23;20310;-77
2022/12/19 00:14:11;;;;;;;0.50;0.50;;;-2.60;99.90;;;-2.92;100.00;101357.25;4894836;29;20254;-78
2022/12/19 00:16:38;;;;;;;0.20;0.20;;;-2.50;99.90;;;-2.89;100.00;101354.00;4895484;29;20259;-77
2022/12/19 00:19:06;;;;;;;0.20;0.20;;;-2.50;99.90;;;-2.88;100.00;101353.22;4895058;29;20243;-77
2022/12/19 00:21:34;;;;;;;0.30;0.30;;;-2.60;99.90;;;-2.88;100.00;101348.06;4894225;29;20275;-78
2022/12/19 00:24:03;;;;;;;0.20;0.20;;;-2.60;99.90;;;-2.89;100.00;101338.47;4895370;29;20239;-77
2022/12/19 00:26:48;;;;;;;0.20;0.20;;;-2.50;99.90;;;-2.87;100.00;101348.94;4890786;29;20246;-76
2022/12/19 00:29:15;;;;;;;0.20;0.20;;;-2.50;99.90;;;-2.88;100.00;101347.16;4883421;29;20235;-76
2022/12/19 00:31:42;;;;;;;0.30;0.30;;;-1.90;99.90;;;-2.90;100.00;101339.25;4884018;29;20240;-76
2022/12/19 00:34:09;;;;;;;0.20;0.20;;;-2.60;99.90;;;-2.91;100.00;101338.38;4874591;29;20232;-76
2022/12/19 00:36:36;;;;;;;0.30;0.30;;;-2.60;99.90;;;-2.93;100.00;101331.28;4892471;29;20731;-76
2022/12/19 00:39:05;;;;;;;0.50;0.50;;;-2.60;99.90;;;-2.90;100.00;101328.91;4891246;29;20660;-76
2022/12/19 00:41:37;;;;;;;0.20;0.20;;;-2.60;99.90;;;-2.91;100.00;101322.84;4893781;29;20259;-76
2022/12/19 00:44:13;;;;;;;0.50;0.50;;;-2.60;99.90;;;-2.88;100.00;101326.44;4875892;29;20278;-76
2022/12/19 00:46:41;;;;;;;0.30;0.30;;;-2.00;99.90;;;-2.94;100.00;101325.19;4886622;29;20233;-76
2022/12/19 00:49:12;;;;;;;0.20;0.20;;;-2.60;99.90;;;-2.88;100.00;101329.03;4891677;29;20231;-76
2022/12/19 00:51:39;;;;;;;0.30;0.30;;;-2.60;99.90;;;-2.90;100.00;101335.00;4892834;29;20359;-76
2022/12/19 00:54:06;;;;;;;2.50;1.75;;;-2.50;99.90;;;-2.95;100.00;101322.47;4896648;29;20256;-76
2022/12/19 00:56:35;;;;;;;0.25;0.25;;;-2.60;99.90;;;-2.92;100.00;101325.31;4889566;29;20236;-76
2022/12/19 00:59:05;;;;;;;0.52;0.52;;;-2.60;99.90;;;-2.91;100.00;101319.34;4878730;29;20235;-75
2022/12/19 01:01:39;;;;;;;0.20;0.20;;;-2.60;99.90;;;-2.92;100.00;101314.94;4893046;29;20315;-76
2022/12/19 01:04:15;;;;;;;0.30;0.30;;;-2.60;99.90;;;-2.91;100.00;101321.94;4888174;29;20236;-76
2022/12/19 01:06:54;;;;;;;0.60;0.60;;;-2.60;99.90;;;-2.90;100.00;101321.16;4895046;29;20232;-76
2022/12/19 01:09:29;;;;;;;0.20;0.20;;;-2.50;99.90;;;-2.89;100.00;101320.38;4882511;29;20242;-76
2022/12/19 01:14:42;;;;;;;0.73;0.73;;;-2.60;99.90;;;-2.89;100.00;101322.94;4894736;29;20342;-76
2022/12/19 01:17:09;;;;;;;0.82;0.82;;;-2.60;99.90;;;-2.89;100.00;101320.38;4891147;29;20234;-76
2022/12/19 01:19:36;;;;;;;0.20;0.20;;;-2.60;99.90;;;-2.89;100.00;101315.19;4894949;29;20259;-76
2022/12/19 01:22:12;;;;;;;0.30;0.30;;;-2.60;99.90;;;-2.90;100.00;101306.53;4891814;29;20366;-76
2022/12/19 01:24:39;;;;;;;0.25;0.25;;;-2.50;99.90;;;-2.90;100.00;101305.63;4900664;29;20254;-76
2022/12/19 01:27:07;;;;;;;0.55;0.55;;;-2.40;99.90;;;-2.87;100.00;101302.38;4892313;29;20262;-76
2022/12/19 01:29:34;;;;;;;0.20;0.20;;;-2.50;99.90;;;-2.86;100.00;101299.00;4894242;29;20274;-76
2022/12/19 01:32:19;;;;;;;1.98;1.30;;;-2.60;99.90;;;-2.89;100.00;101304.84;4891873;29;20231;-76
2022/12/19 01:34:46;;;;;;;0.20;0.20;;;-2.50;99.90;;;-2.87;100.00;101318.78;4886270;29;20239;-76
2022/12/19 01:37:16;;;;;;;0.30;0.30;;;-2.50;99.90;;;-2.88;100.00;101314.41;4892741;29;20720;-75
2022/12/19 01:39:43;;;;;;;0.20;0.20;;;-2.60;99.90;;;-2.88;100.00;101309.22;4893400;29;20322;-76
2022/12/19 01:42:18;;;;;;;0.20;0.20;;;-2.50;99.90;;;-2.85;100.00;101301.69;4893313;29;20268;-76
2022/12/19 01:45:06;;;;;;;0.20;0.20;;;-2.50;99.90;;;-2.81;100.00;101308.00;4891363;29;20231;-75
2022/12/19 01:47:55;;;;;;;0.20;0.20;;;-2.50;99.90;;;-2.84;100.00;101298.31;4873459;29;20236;-76
2022/12/19 01:50:34;;;;;;;0.43;0.43;;;-2.50;99.90;;;-2.82;100.00;101298.44;4892905;29;20310;-76
2022/12/19 01:53:03;;;;;;;0.30;0.30;;;-2.50;99.90;;;-2.80;100.00;101302.94;4889725;29;20234;-76
2022/12/19 01:55:30;;;;;;;0.43;0.43;;;-2.50;99.90;;;-2.81;100.00;101303.72;4893029;29;20302;-76
2022/12/19 01:57:59;;;;;;;0.52;0.52;;;-2.50;99.90;;;-2.82;100.00;101301.03;4893526;29;20326;-76
2022/12/19 02:00:26;;;;;;;0.20;0.20;;;-2.50;99.90;;;-2.81;100.00;101298.56;4870794;29;20243;-76
2022/12/19 02:03:05;;;;;;;0.32;0.32;;;-2.50;99.90;;;-2.79;100.00;101296.97;4892558;29;20236;-76
2022/12/19 02:05:34;;;;;;;0.28;0.28;;;-2.50;99.90;;;-2.77;100.00;101298.00;4886032;29;20245;-76
2022/12/19 02:08:03;;;;;;;0.22;0.22;;;-2.40;99.90;;;-2.77;100.00;101289.31;4874443;29;20259;-76
2022/12/19 02:10:30;;;;;;;4.03;1.48;;;-2.50;99.90;;;-2.77;100.00;101299.69;4892346;29;20300;-76
2022/12/19 02:12:57;;;;;;;0.30;0.30;;;-2.50;99.90;;;-2.76;100.00;101298.91;4890179;29;20267;-76
2022/12/19 02:15:32;;;;;;;0.20;0.20;;;-2.40;99.90;;;-2.75;100.00;101304.19;4872942;29;20287;-76
2022/12/19 02:18:34;;;;;;;0.20;0.20;;;-2.40;99.90;;;-2.73;100.00;101299.13;4876880;29;20254;-76
2022/12/19 02:21:13;;;;;;;0.20;0.20;;;-2.40;99.90;;;-2.74;100.00;101285.28;4867630;29;20259;-76
2022/12/19 02:23:58;;;;;;;0.20;0.20;;;-2.40;99.90;;;-2.70;100.00;101283.81;4889990;29;20291;-76
2022/12/19 02:26:28;;;;;;;0.10;0.10;;;-2.40;99.90;;;-2.71;100.00;101282.03;4873920;29;20228;-76
2022/12/19 02:29:10;;;;;;;2.90;0.95;;;-2.40;99.90;;;-2.68;100.00;101280.56;4875571;29;20704;-76
2022/12/19 02:31:57;;;;;;;0.57;0.57;;;-2.40;99.90;;;-2.68;100.00;101277.97;4875303;29;20331;-76
2022/12/19 02:34:38;;;;;;;0.20;0.20;;;-2.30;99.90;;;-2.68;100.00;101270.22;4867798;29;20236;-76
2022/12/19 02:37:20;;;;;;;3.50;1.38;;;-2.30;99.90;;;-2.67;100.00;101272.00;4890896;29;20314;-75
2022/12/19 02:40:03;;;;;;;0.30;0.30;;;-2.30;99.90;;;-2.68;100.00;101274.47;4869198;29;20322;-76
2022/12/19 02:42:38;;;;;;;0.30;0.30;;;-2.30;99.90;;;-2.64;100.00;101286.88;4890521;29;20327;-76
2022/12/19 02:45:09;;;;;;;0.20;0.20;;;-2.30;99.90;;;-2.62;100.00;101282.72;4891403;29;20255;-76
2022/12/19 02:47:37;;;;;;;0.20;0.20;;;-2.30;99.90;;;-2.65;100.00;101278.22;4876617;29;20255;-76
2022/12/19 02:50:06;;;;;;;0.20;0.20;;;-2.30;99.90;;;-2.61;100.00;101287.09;4870816;29;20288;-76
2022/12/19 02:52:33;;;;;;;0.20;0.20;;;-2.30;99.90;;;-2.63;100.00;101279.22;4891790;29;20307;-76
2022/12/19 02:55:06;;;;;;;0.20;0.20;;;-2.30;99.90;;;-2.59;100.00;101285.56;4886010;29;20240;-76
2022/12/19 02:58:15;;;;;;;0.20;0.20;;;-2.30;99.90;;;-2.60;100.00;101289.84;4892074;29;20322;-76
2022/12/19 03:01:23;;;;;;;0.20;0.20;;;-2.20;99.90;;;-2.56;100.00;101287.47;4886200;29;20235;-76
2022/12/19 03:03:55;;;;;;;0.22;0.22;;;-2.20;99.90;;;-2.60;100.00;101271.72;4889011;29;20239;-76
2022/12/19 03:06:39;;;;;;;0.20;0.20;;;-2.20;99.90;;;-2.54;100.00;101270.38;4890096;29;20347;-76
2022/12/19 03:09:23;;;;;;;0.20;0.20;;;-2.20;99.90;;;-2.55;100.00;101271.16;4873753;29;20336;-76
2022/12/19 03:12:00;;;;;;;0.20;0.20;;;-2.20;99.90;;;-2.54;100.00;101279.03;4875193;29;20374;-76
2022/12/19 03:14:30;;;;;;;0.20;0.20;;;-2.20;99.90;;;-2.53;100.00;101277.34;4870330;29;20263;-76
2022/12/19 03:17:04;;;;;;;0.20;0.20;;;-2.20;99.90;;;-2.52;100.00;101277.47;4868680;29;20240;-76
2022/12/19 03:19:33;;;;;;;0.20;0.20;;;-2.20;99.90;;;-2.53;100.00;101275.66;4868691;29;20231;-76
2022/12/19 03:22:01;;;;;;;0.10;0.10;;;-2.20;99.90;;;-2.51;100.00;101278.38;4875502;29;20255;-76
2022/12/19 03:24:28;;;;;;;0.20;0.20;;;-2.20;99.90;;;-2.51;100.00;101280.97;4890592;29;20241;-76
2022/12/19 03:27:08;;;;;;;0.15;0.15;;;-2.20;99.90;;;-2.47;100.00;101291.66;4891515;29;20326;-76
2022/12/19 03:29:39;;;;;;;0.20;0.20;;;-2.20;99.90;;;-2.47;100.00;101285.56;4875175;29;20260;-76
2022/12/19 03:32:13;;;;;;;0.20;0.20;;;-2.20;99.90;;;-2.48;100.00;101279.50;4884145;29;20268;-76
2022/12/19 03:35:11;;;;;;;0.20;0.20;;;-2.10;99.90;;;-2.46;100.00;101283.09;4884128;29;20240;-76
2022/12/19 03:37:41;;;;;;;0.20;0.20;;;-2.10;99.90;;;-2.46;100.00;101289.97;4890968;29;20587;-76
2022/12/19 03:40:20;;;;;;;0.20;0.20;;;-1.50;99.90;;;-2.43;100.00;101279.84;4878999;29;20323;-76
2022/12/19 03:43:10;;;;;;;0.47;0.47;;;-2.10;99.90;;;-2.44;100.00;101284.13;4886871;29;20231;-76
2022/12/19 03:46:21;;;;;;;0.20;0.20;;;-2.10;99.90;;;-2.45;100.00;101284.91;4876925;29;20236;-76
2022/12/19 03:48:54;;;;;;;0.30;0.30;;;-2.10;99.90;;;-2.42;100.00;101289.41;4860546;29;20287;-76
2022/12/19 03:51:39;;;;;;;0.20;0.20;;;-2.10;99.90;;;-2.43;100.00;101290.19;4858623;29;20235;-76
2022/12/19 03:54:20;;;;;;;0.15;0.15;;;-2.10;99.90;;;-2.40;100.00;101285.25;4893398;29;20231;-76
2022/12/19 03:57:10;;;;;;;0.30;0.30;;;-2.10;99.90;;;-2.40;100.00;101278.38;4878825;29;20231;-76
2022/12/19 04:00:04;;;;;;;0.20;0.20;;;-2.10;99.90;;;-2.40;100.00;101278.38;4893895;29;20231;-76
2022/12/19 04:02:36;;;;;;;0.20;0.20;;;-1.40;99.90;;;-2.38;100.00;101284.56;4887245;29;20235;-76
2022/12/19 04:05:11;;;;;;;0.20;0.20;;;-2.10;99.90;;;-2.38;100.00;101287.16;4873499;29;20346;-75
2022/12/19 04:07:39;;;;;;;0.73;0.57;;;-2.00;99.90;;;-2.39;100.00;101294.81;4892698;29;20231;-76
2022/12/19 04:10:11;;;;;;;0.20;0.20;;;-2.10;99.90;;;-2.37;100.00;101288.97;4888440;29;20259;-76
2022/12/19 04:12:52;;;;;;;0.40;0.40;;;-2.00;99.90;;;-2.36;100.00;101290.75;4873112;29;20270;-75
2022/12/19 04:15:40;;;;;;;0.20;0.20;;;-2.00;99.90;;;-2.35;100.00;101289.06;4878711;29;20235;-76
2022/12/19 04:18:12;;;;;;;0.20;0.20;;;-2.00;99.90;;;-2.33;100.00;101284.91;4894065;29;20227;-76
2022/12/19 04:20:44;;;;;;;1.27;1.27;;;-2.00;99.90;;;-2.31;100.00;101284.22;4875353;29;20271;-76
2022/12/19 04:23:21;;;;;;;0.30;0.30;;;-2.00;99.90;;;-2.31;100.00;101283.31;4877285;29;20263;-76
2022/12/19 04:25:54;;;;;;;0.10;0.10;;;-1.60;99.90;;;-2.27;100.00;101296.63;4878986;29;20231;-76
2022/12/19 04:28:25;;;;;;;1.10;0.63;;;-2.00;99.90;;;-2.31;100.00;101285.91;4879424;29;20692;-76
2022/12/19 04:30:53;;;;;;;0.43;0.43;;;-2.00;99.90;;;-2.30;100.00;101269.59;4876463;29;20243;-76
2022/12/19 04:33:20;;;;;;;0.15;0.15;;;-2.00;99.90;;;-2.32;100.00;101269.47;4877445;29;20242;-76
2022/12/19 04:35:48;;;;;;;0.30;0.30;;;-1.80;99.90;;;-2.30;100.00;101264.41;4890116;29;20232;-76
2022/12/19 04:38:15;;;;;;;0.35;0.35;;;-1.20;99.90;;;-2.31;100.00;101258.31;4885959;29;20351;-76
2022/12/19 04:40:42;;;;;;;0.20;0.20;;;-2.00;99.90;;;-2.31;100.00;101255.72;4893995;29;20346;-76
2022/12/19 04:43:09;;;;;;;0.30;0.30;;;-2.00;99.90;;;-2.28;100.00;101274.09;4874026;29;20240;-76
2022/12/19 04:45:36;;;;;;;0.57;0.57;;;-1.00;99.90;;;-2.28;100.00;101266.31;4890227;29;20246;-76
2022/12/19 04:48:04;;;;;;;0.17;0.17;;;-2.00;99.90;;;-2.23;100.00;101258.88;4884617;29;20334;-76
2022/12/19 04:50:34;;;;;;;0.20;0.20;;;-1.90;99.90;;;-2.20;100.00;101240.06;4874718;29;20259;-76
2022/12/19 04:53:01;;;;;;;0.20;0.20;;;-1.90;99.90;;;-2.19;100.00;101247.03;4880555;29;20256;-76
2022/12/19 04:55:28;;;;;;;0.30;0.30;;;-1.90;99.90;;;-2.21;100.00;101248.63;4892142;29;20252;-76
2022/12/19 04:57:55;;;;;;;0.50;0.50;;;-1.40;99.90;;;-2.21;100.00;101249.53;4894818;29;20236;-76
2022/12/19 05:00:23;;;;;;;0.38;0.38;;;-1.90;99.90;;;-2.20;100.00;101250.44;4893036;29;20236;-76
2022/12/19 05:02:50;;;;;;;0.20;0.20;;;-1.90;99.90;;;-2.18;100.00;101254.03;4890613;29;20746;-76
2022/12/19 05:05:17;;;;;;;0.30;0.30;;;-1.60;99.90;;;-2.18;100.00;101254.03;4878492;29;20239;-76
2022/12/19 05:07:45;;;;;;;0.20;0.20;;;-1.80;99.90;;;-2.18;100.00;101252.34;4891891;29;20255;-76
2022/12/19 05:10:13;;;;;;;0.50;0.50;;;-1.80;99.90;;;-2.20;100.00;101237.47;4895044;29;20238;-76
2022/12/19 05:12:40;;;;;;;0.20;0.20;;;-1.90;99.90;;;-2.16;100.00;101239.50;4887741;29;20705;-76
2022/12/19 05:15:08;;;;;;;0.32;0.32;;;-1.90;99.90;;;-2.15;100.00;101242.19;4871369;29;20228;-76
2022/12/19 05:17:35;;;;;;;0.20;0.20;;;-1.80;99.90;;;-2.14;100.00;101238.81;4894366;29;20231;-76
2022/12/19 05:20:03;;;;;;;0.35;0.35;;;-1.80;99.90;;;-2.15;100.00;101234.44;4895335;29;20265;-76
2022/12/19 05:22:30;;;;;;;0.20;0.20;;;-1.80;99.90;;;-2.15;100.00;101233.53;4879589;29;20319;-76
2022/12/19 05:24:57;;;;;;;0.10;0.10;;;-1.40;99.90;;;-2.14;100.00;101240.50;4894181;29;20247;-76
2022/12/19 05:27:24;;;;;;;0.28;0.28;;;-1.80;99.90;;;-2.13;100.00;101250.97;4894635;29;20239;-76
2022/12/19 05:29:51;;;;;;;0.30;0.30;;;-1.70;99.90;;;-2.11;100.00;101254.59;4878226;29;20312;-76
2022/12/19 05:32:18;;;;;;;0.30;0.30;;;-1.80;99.90;;;-2.08;100.00;101233.19;4892619;29;20263;-76
2022/12/19 05:34:45;;;;;;;0.20;0.20;;;-1.80;99.90;;;-2.05;100.00;101241.16;4887259;29;20337;-77
2022/12/19 05:37:12;;;;;;;0.20;0.20;;;-1.70;99.90;;;-2.05;100.00;101228.22;4893053;29;20279;-76
2022/12/19 05:39:39;;;;;;;0.35;0.35;;;-1.70;99.90;;;-2.03;100.00;101224.94;4892781;29;20260;-76
2022/12/19 05:42:06;;;;;;;0.20;0.20;;;-1.70;99.90;;;-2.03;100.00;101230.13;4892167;29;20310;-77
2022/12/19 05:44:38;;;;;;;0.43;0.43;;;-1.70;99.90;;;-2.03;100.00;101230.13;4890046;29;20620;-76
2022/12/19 05:47:05;;;;;;;0.20;0.20;;;-1.70;99.90;;;-2.01;100.00;101238.00;4893425;29;20232;-76
2022/12/19 05:49:32;;;;;;;0.47;0.47;;;-1.70;99.90;;;-1.98;100.00;101243.41;4890854;29;20236;-76
2022/12/19 05:51:59;;;;;;;0.43;0.43;;;-1.70;99.90;;;-2.00;100.00;101248.47;4854374;29;20278;-76
2022/12/19 05:54:27;;;;;;;0.20;0.20;;;-1.70;99.90;;;-1.98;100.00;101239.13;4892894;29;20235;-76
2022/12/19 05:56:54;;;;;;;0.20;0.20;;;-0.80;99.90;;;-1.97;100.00;101225.38;4892249;29;20258;-76
2022/12/19 05:59:21;;;;;;;0.20;0.20;;;-1.60;99.90;;;-1.97;100.00;101230.56;4890332;29;20311;-76
2022/12/19 06:01:48;;;;;;;1.55;0.85;;;-1.70;99.90;;;-1.96;100.00;101234.94;4879219;29;20264;-76
2022/12/19 06:04:15;;;;;;;1.30;1.30;;;-1.60;99.90;;;-1.95;100.00;101217.72;4889028;29;20254;-76
2022/12/19 06:06:42;;;;;;;0.20;0.20;;;-1.60;99.90;;;-1.93;100.00;101218.72;4860530;29;20256;-76
2022/12/19 06:09:09;;;;;;;0.20;0.20;;;-1.60;99.90;;;-1.90;100.00;101223.22;4888517;29;20267;-76
2022/12/19 06:11:36;;;;;;;0.20;0.20;;;-0.60;99.90;;;-1.91;100.00;101217.13;4870330;29;20315;-76
2022/12/19 06:14:06;;;;;;;0.40;0.40;;;-1.20;99.90;;;-1.89;100.00;101219.84;4885974;29;20232;-76
2022/12/19 06:16:33;;;;;;;2.40;1.20;;;-0.90;99.90;;;-1.91;100.00;101224.00;4869676;29;20236;-76
2022/12/19 06:19:00;;;;;;;0.10;0.10;;;-1.60;99.90;;;-1.90;100.00;101226.72;4887862;29;20243;-75
2022/12/19 06:21:27;;;;;;;0.20;0.20;;;-1.30;99.90;;;-1.88;100.00;101219.03;4872255;29;20251;-76
2022/12/19 06:23:54;;;;;;;0.52;0.52;;;-1.60;99.90;;;-1.87;100.00;101224.34;4890943;29;20255;-75
2022/12/19 06:26:22;;;;;;;0.20;0.20;;;-1.60;99.90;;;-1.87;100.00;101226.94;4890790;29;20252;-76
2022/12/19 06:28:51;;;;;;;0.50;0.50;;;-1.60;99.90;;;-1.85;100.00;101222.75;4890231;29;20255;-77
2022/12/19 06:31:21;;;;;;;0.17;0.17;;;-1.60;99.90;;;-1.84;100.00;101221.97;4888743;29;20238;-76
2022/12/19 06:33:49;;;;;;;0.20;0.20;;;-1.50;99.90;;;-1.86;100.00;101218.34;4869503;29;20635;-75
2022/12/19 06:36:21;;;;;;;0.20;0.20;;;-1.20;99.90;;;-1.85;100.00;101219.25;4870701;29;20238;-75
2022/12/19 06:38:49;;;;;;;0.20;0.20;;;-1.50;99.90;;;-1.84;100.00;101211.59;4874384;29;20256;-76
2022/12/19 06:44:07;;;;;;;0.10;0.10;;;-1.50;99.90;;;-1.82;100.00;101225.56;4889660;29;20270;-77
2022/12/19 06:46:36;;;;;;;0.30;0.30;;;-1.40;99.90;;;-1.81;100.00;101213.50;4889389;29;20334;-77
2022/12/19 06:49:03;;;;;;;0.20;0.20;;;-1.50;99.90;;;-1.81;100.00;101213.50;4893866;29;20279;-77
2022/12/19 06:51:31;;;;;;;0.20;0.20;;;-0.70;99.90;;;-1.82;100.00;101206.50;4886397;29;20271;-77
2022/12/19 06:53:58;;;;;;;0.30;0.30;;;-1.50;99.90;;;-1.82;100.00;101204.81;4880510;29;20259;-77
2022/12/19 06:56:25;;;;;;;0.20;0.20;;;-0.70;99.90;;;-1.81;100.00;101206.63;4894002;29;20227;-77
2022/12/19 06:58:53;;;;;;;0.20;0.20;;;-1.50;99.90;;;-1.80;100.00;101205.81;4894460;29;20242;-77
2022/12/19 07:02:03;;;;;;;0.20;0.20;;;-1.50;99.90;;;-1.80;100.00;101203.22;4872347;29;20240;-76
2022/12/19 07:04:40;;;;;;;0.20;0.20;;;-1.50;99.90;;;-1.77;100.00;101215.50;4889551;29;20235;-76
2022/12/19 07:07:07;;;;;;;0.20;0.20;;;-1.50;99.90;;;-1.77;100.00;101206.03;4884940;29;20259;-77
2022/12/19 07:09:34;;;;;;;0.30;0.30;;;-1.40;99.90;;;-1.77;100.00;101198.25;4893565;29;20232;-75
2022/12/19 07:12:02;;;;;;;0.10;0.10;;;-1.50;99.90;;;-1.74;100.00;101201.06;4886864;29;20266;-76
2022/12/19 07:14:29;;;;;;;0.20;0.20;;;-1.40;99.90;;;-1.72;100.00;101215.03;4872286;29;20271;-76
2022/12/19 07:17:00;;;;;;;0.20;0.20;;;-1.40;99.90;;;-1.73;100.00;101207.16;4881861;29;20303;-77
2022/12/19 07:19:29;;;;;;;0.47;0.47;;;-1.40;99.90;;;-1.69;100.00;101207.47;4868853;29;20256;-77
2022/12/19 07:21:58;;;;;;;0.20;0.20;;;-0.80;99.90;;;-1.68;100.00;101203.19;4868307;29;20260;-76
2022/12/19 07:24:25;;;;;;;0.35;0.35;;;-1.40;99.90;;;-1.69;100.00;101210.06;4876164;29;20236;-75
2022/12/19 07:26:52;;;;;;;0.65;0.65;;;-1.40;99.90;;;-1.69;100.00;101207.47;4874111;29;20231;-76
2022/12/19 07:29:19;;;;;;;0.40;0.40;;;-1.40;99.90;;;-1.68;100.00;101216.16;4873796;29;20323;-76
2022/12/19 07:31:46;;;;;;;0.40;0.40;;;-1.20;99.90;;;-1.69;100.00;101212.66;4891080;29;20295;-76
2022/12/19 07:34:13;;;;;;;0.20;0.20;;;-1.40;99.90;;;-1.67;100.00;101213.66;4893073;29;20239;-76
2022/12/19 07:36:40;;;;;;;1.40;1.38;;;-0.40;99.90;;;-1.65;100.00;101225.06;4873894;29;20235;-76
2022/12/19 07:39:07;;;;;;;0.10;0.10;;;-1.30;99.90;;;-1.65;100.00;101230.25;4893362;29;20287;-76
2022/12/19 07:41:38;;;;;;;0.20;0.20;;;-1.30;99.90;;;-1.61;100.00;101237.44;4888559;29;20239;-76
2022/12/19 07:44:06;;;;;;;0.10;0.10;;;-1.30;99.90;;;-1.59;100.00;101236.66;4891641;29;20251;-77
2022/12/19 07:46:34;;;;;;;0.30;0.30;;;-1.30;99.90;;;-1.57;100.00;101235.97;4873343;29;20243;-76
2022/12/19 07:49:01;;;;;;;0.82;0.82;;;-1.10;99.90;;;-1.57;100.00;101238.56;4873770;29;20273;-77
2022/12/19 07:51:28;;;;;;;0.20;0.20;;;-1.30;99.90;;;-1.57;100.00;101229.88;4882163;29;20303;-77
2022/12/19 07:53:55;;;;;;;0.20;0.20;;;-1.30;99.90;;;-1.55;100.00;101228.28;4889297;29;20301;-77
2022/12/19 07:56:24;;;;;;;0.47;0.47;;;-0.20;99.90;;;-1.55;100.00;101223.09;4878312;29;20251;-77
2022/12/19 07:58:51;;;;;;;0.10;0.10;;;-1.20;99.90;;;-1.53;100.00;101226.69;4893407;29;20252;-77
2022/12/19 08:01:19;;;;;;;0.20;0.20;;;-0.50;99.90;;;-1.52;100.00;101228.50;4889892;29;20260;-77
2022/12/19 08:03:46;;;;;;;0.20;0.20;;;-1.10;99.90;;;-1.51;100.00;101227.72;4885691;29;20314;-77
2022/12/19 08:06:13;;;;;;;0.10;0.10;;;-1.20;99.90;;;-1.52;100.00;101229.41;4886922;29;20233;-77
2022/12/19 08:08:40;;;;;;;0.15;0.15;;;-1.20;99.90;;;-1.51;100.00;101228.59;4887409;29;20334;-76
2022/12/19 08:11:17;;;;;;;0.20;0.20;;;-1.20;99.90;;;-1.47;100.00;101227.13;4890692;29;20322;-77
2022/12/19 08:13:45;;;;;;;0.20;0.20;;;-1.20;99.90;;;-1.47;100.00;101216.75;4887085;29;20957;-77
2022/12/19 08:16:14;;;;;;;0.63;0.63;;;-1.20;99.90;;;-1.44;100.00;101215.25;4870658;29;20228;-76
2022/12/19 08:18:41;;;;;;;0.20;0.20;;;-1.10;99.90;;;-1.41;100.00;101222.34;4889122;29;20680;-76
2022/12/19 08:21:09;;;;;;;0.20;0.20;;;-1.10;99.90;;;-1.39;100.00;101219.06;4893710;29;20662;-76
2022/12/19 08:23:40;;;;;;;0.20;0.20;;;-1.10;99.90;;;-1.36;100.00;101232.25;4888075;29;20235;-76
2022/12/19 08:26:12;;;;;;;0.20;0.20;;;-1.10;99.90;;;-1.37;100.00;101240.84;4869910;29;20234;-76
2022/12/19 08:28:39;;;;;;;0.30;0.30;;;-0.90;99.90;;;-1.36;100.00;101227.06;4890801;29;20244;-76
2022/12/19 08:31:10;;;;;;;0.20;0.20;;;-0.20;99.90;;;-1.37;100.00;101225.28;4880962;29;20254;-77
2022/12/19 08:33:39;;;;;;;0.20;0.20;;;-1.10;99.90;;;-1.33;100.00;101224.69;4888981;29;20236;-76
2022/12/19 08:36:10;;;;;;;0.50;0.50;;;-1.00;99.90;;;-1.31;100.00;101223.09;4864803;29;20668;-76
2022/12/19 08:38:41;;;;;;;0.32;0.32;;;-1.00;99.90;;;-1.27;100.00;101223.34;4879904;29;20238;-76
2022/12/19 08:41:08;;;;;;;1.20;1.20;;;-0.30;99.90;;;-1.28;100.00;101219.84;4883796;29;20271;-76
2022/12/19 08:43:36;;;;;;;0.28;0.28;;;-0.60;99.90;;;-1.26;100.00;101219.94;4861895;29;20280;-76
2022/12/19 08:46:05;;;;;;;0.20;0.20;;;-0.90;99.90;;;-1.25;100.00;101222.66;4881743;29;20231;-76
2022/12/19 08:48:33;;;;;;;0.20;0.20;;;-0.90;99.90;;;-1.21;100.00;101228.94;4895547;29;20242;-76
2022/12/19 08:51:06;;;;;;;0.10;0.10;;;-0.90;99.90;;;-1.18;100.00;101232.66;4891628;29;20243;-76
2022/12/19 08:53:37;;;;;;;0.20;0.20;;;-0.90;99.90;;;-1.18;100.00;101232.66;4892444;29;20243;-76
2022/12/19 08:56:25;;;;;;;0.40;0.40;;;-0.90;99.90;;;-1.16;100.00;101218.09;4879008;29;20232;-76
2022/12/19 08:58:54;;;;;;;0.20;0.20;;;-0.50;99.90;;;-1.14;100.00;101229.47;4892563;29;20287;-76
2022/12/19 09:01:22;;;;;;;0.10;0.10;;;-0.60;99.90;;;-1.13;100.00;101214.81;4891372;29;20235;-76
2022/12/19 09:03:50;;;;;;;0.15;0.15;;;-0.80;99.90;;;-1.08;100.00;101205.63;4884929;29;20319;-76
2022/12/19 09:06:37;;;;;;;0.28;0.28;;;-0.70;99.90;;;-1.09;100.00;101199.53;4883593;29;20227;-76
2022/12/19 09:09:04;;;;;;;0.20;0.20;;;-0.80;99.90;;;-1.08;100.00;101205.63;4887400;29;20232;-76
2022/12/19 09:11:32;;;;;;;0.20;0.20;;;-0.80;99.90;;;-1.02;100.00;101214.72;4888130;29;20240;-76
2022/12/19 09:14:03;;;;;;;0.20;0.20;;;-0.70;99.90;;;-1.02;100.00;101196.56;4883137;29;20247;-76
2022/12/19 09:16:31;;;;;;;0.30;0.30;;;-0.70;99.90;;;-1.00;100.00;101205.34;4891068;29;20232;-76
2022/12/19 09:18:58;;;;;;;0.75;0.75;;;-0.10;99.90;;;-0.96;100.00;101216.84;4886613;29;20239;-77
2022/12/19 09:21:28;;;;;;;0.20;0.20;;;-0.70;99.90;;;-0.93;100.00;101214.44;4882439;29;20243;-77
2022/12/19 09:23:58;;;;;;;0.75;0.73;;;-0.50;99.90;;;-0.86;100.00;101229.63;4886098;29;20232;-76
2022/12/19 09:26:34;;;;;;;0.20;0.20;;;-0.60;99.90;;;-0.86;100.00;101214.06;4890411;29;20239;-77
2022/12/19 09:29:03;;;;;;;0.20;0.20;;;-0.60;99.90;;;-0.84;100.00;101211.56;4893899;29;20242;-76
2022/12/19 09:31:48;;;;;;;0.40;0.40;;;0.00;99.90;;;-0.79;100.00;101218.88;4891512;29;20327;-77
2022/12/19 09:34:27;;;;;;;0.10;0.10;;;-0.10;99.90;;;-0.76;100.00;101215.56;4887349;29;20240;-76
2022/12/19 09:37:07;;;;;;;0.15;0.15;;;-0.50;99.90;;;-0.73;100.00;101218.38;4871414;29;20242;-76
2022/12/19 09:39:35;;;;;;;0.25;0.25;;;-0.50;99.90;;;-0.70;100.00;101214.28;4881853;29;20252;-76
2022/12/19 09:42:35;;;;;;;0.20;0.20;;;-0.40;99.90;;;-0.67;100.00;101205.78;4885829;29;20240;-77
2022/12/19 09:45:31;;;;;;;0.20;0.20;;;-0.40;99.90;;;-0.61;100.00;101213.09;4886976;29;20322;-76
2022/12/19 09:48:00;;;;;;;0.63;0.63;;;-0.30;99.90;;;-0.59;100.00;101208.88;4883593;29;20232;-75
2022/12/19 09:51:08;;;;;;;0.15;0.15;;;-0.30;99.90;;;-0.58;100.00;101219.38;4871931;29;20340;-75
2022/12/19 09:54:02;;;;;;;0.38;0.38;;;-0.30;99.90;;;-0.58;100.00;101210.69;4809494;29;20241;-75
2022/12/19 09:56:34;;;;;;;0.20;0.20;;;-0.30;99.90;;;-0.53;100.00;101210.19;4882648;29;20263;-75
2022/12/19 09:59:30;;;;;;;0.20;0.20;;;0.00;99.90;;;-0.51;100.00;101208.59;4877497;29;20752;-75
2022/12/19 10:02:42;;;;;;;0.50;0.50;;;-0.20;99.90;;;-0.43;100.00;101211.69;4893452;29;20240;-75
2022/12/19 10:05:46;;;;;;;0.82;0.82;;;-0.20;99.90;;;-0.47;100.00;101207.09;4873756;29;20228;-76
2022/12/19 10:08:36;;;;;;;0.52;0.52;;;-0.20;99.90;;;-0.43;100.00;101215.19;4882632;29;20311;-76
2022/12/19 10:11:59;;;;;;;0.20;0.20;;;-0.20;99.90;;;-0.43;100.00;101215.19;4872501;29;20258;-76
2022/12/19 10:15:09;;;;;;;0.20;0.20;;;-0.10;99.90;;;-0.39;100.00;101196.41;4886932;29;20232;-75
2022/12/19 10:18:10;;;;;;;0.63;0.63;;;-0.10;99.90;;;-0.34;100.00;101194.09;4888298;29;20255;-75
2022/12/19 10:20:45;;;;;;;0.13;0.13;;;-0.10;99.90;;;-0.32;100.00;101200.28;4884679;29;20243;-76
2022/12/19 10:23:53;;;;;;;0.10;0.10;;;0.00;99.90;;;-0.30;100.00;101201.28;4889807;29;20242;-76
2022/12/19 10:26:43;;;;;;;0.20;0.20;;;0.00;99.90;;;-0.32;100.00;101201.19;4869516;29;20325;-75
2022/12/19 10:29:45;;;;;;;0.10;0.10;;;0.00;99.90;;;-0.25;100.00;101205.09;4889536;29;20302;-76
2022/12/19 10:32:32;;;;;;;0.80;0.80;;;0.00;99.90;;;-0.24;100.00;101195.59;4888461;29;20314;-76
2022/12/19 10:35:00;;;;;;;0.10;0.10;;;0.10;99.90;;;-0.18;100.00;101186.47;4888625;29;20231;-76
2022/12/19 10:37:45;;;;;;;0.47;0.47;;;0.10;99.90;;;-0.12;100.00;101194.66;4868158;29;20311;-76